createdAt,value
2018-02-06T00:00:58.590Z,0.00
2018-02-06T00:01:58.530Z,0.00
2018-02-06T00:03:51.327Z,0.00
2018-02-06T00:04:51.238Z,0.00
2018-02-06T00:06:44.008Z,0.00
2018-02-06T00:07:43.950Z,0.00
2018-02-06T00:09:36.747Z,0.00
2018-02-06T00:10:36.658Z,0.00
2018-02-06T00:12:29.425Z,0.00
2018-02-06T00:13:29.367Z,0.00
2018-02-06T00:15:22.164Z,0.00
2018-02-06T00:16:22.075Z,0.00
2018-02-06T00:18:14.844Z,0.00
2018-02-06T00:19:14.782Z,0.00
2018-02-06T00:21:07.582Z,0.00
2018-02-06T00:22:07.495Z,0.00
2018-02-06T00:24:00.262Z,0.00
2018-02-06T00:25:00.204Z,0.00
2018-02-06T00:26:53.001Z,0.00
2018-02-06T00:27:52.911Z,0.00
2018-02-06T00:29:45.678Z,0.00
2018-02-06T00:30:45.619Z,0.00
2018-02-06T00:32:38.415Z,0.00
2018-02-06T00:33:38.327Z,0.00
2018-02-06T00:35:31.095Z,0.00
2018-02-06T00:36:31.037Z,0.00
2018-02-06T00:38:23.837Z,0.00
2018-02-06T00:39:23.746Z,0.00
2018-02-06T00:41:16.514Z,0.00
2018-02-06T00:42:16.456Z,0.00
2018-02-06T00:44:09.252Z,0.00
2018-02-06T00:45:09.162Z,0.00
2018-02-06T00:47:01.930Z,0.00
2018-02-06T00:48:01.871Z,0.00
2018-02-06T00:49:54.668Z,0.00
2018-02-06T00:50:54.578Z,0.00
2018-02-06T00:52:47.346Z,0.00
2018-02-06T00:53:47.285Z,0.00
2018-02-06T00:55:40.083Z,0.00
2018-02-06T00:56:39.992Z,0.00
2018-02-06T00:58:32.760Z,0.00
2018-02-06T00:59:32.700Z,0.00
2018-02-06T01:01:25.500Z,0.00
2018-02-06T01:02:25.410Z,0.00
2018-02-06T01:04:18.177Z,0.00
2018-02-06T01:05:18.117Z,0.00
2018-02-06T01:07:10.915Z,0.00
2018-02-06T01:08:10.825Z,0.00
2018-02-06T01:10:03.595Z,0.00
2018-02-06T01:11:03.534Z,0.00
2018-02-06T01:12:56.331Z,0.00
2018-02-06T01:13:56.240Z,0.00
2018-02-06T01:15:49.009Z,0.00
2018-02-06T01:16:48.952Z,0.00
2018-02-06T01:18:41.747Z,0.00
2018-02-06T01:19:41.657Z,0.00
2018-02-06T01:21:34.427Z,0.00
2018-02-06T01:22:34.368Z,0.00
2018-02-06T01:24:27.169Z,0.00
2018-02-06T01:25:27.075Z,0.00
2018-02-06T01:27:19.843Z,0.00
2018-02-06T01:28:19.782Z,0.00
2018-02-06T01:30:12.581Z,0.00
2018-02-06T01:31:12.490Z,0.00
2018-02-06T01:33:05.258Z,0.00
2018-02-06T01:34:05.201Z,0.00
2018-02-06T01:35:57.998Z,0.00
2018-02-06T01:36:57.908Z,0.00
2018-02-06T01:38:50.677Z,0.00
2018-02-06T01:39:50.619Z,0.00
2018-02-06T01:41:43.418Z,0.00
2018-02-06T01:42:43.329Z,0.00
2018-02-06T01:44:36.096Z,0.00
2018-02-06T01:45:36.036Z,0.00
2018-02-06T01:47:28.832Z,0.00
2018-02-06T01:48:28.743Z,0.00
2018-02-06T01:50:21.509Z,0.00
2018-02-06T01:51:21.450Z,0.00
2018-02-06T01:53:14.245Z,0.00
2018-02-06T01:54:14.157Z,0.00
2018-02-06T01:56:06.925Z,0.00
2018-02-06T01:57:06.864Z,0.00
2018-02-06T01:58:59.659Z,0.00
2018-02-06T01:59:59.569Z,0.00
2018-02-06T02:01:52.337Z,0.00
2018-02-06T02:02:52.277Z,0.00
2018-02-06T02:04:45.077Z,0.00
2018-02-06T02:05:44.984Z,0.00
2018-02-06T02:07:37.752Z,0.00
2018-02-06T02:08:37.695Z,0.00
2018-02-06T02:10:30.489Z,0.00
2018-02-06T02:11:30.397Z,0.00
2018-02-06T02:13:23.162Z,0.00
2018-02-06T02:14:23.108Z,0.00
2018-02-06T02:16:15.898Z,0.00
2018-02-06T02:17:15.808Z,0.00
2018-02-06T02:19:08.575Z,0.00
2018-02-06T02:20:08.513Z,0.00
2018-02-06T02:22:01.309Z,0.00
2018-02-06T02:23:01.220Z,0.00
2018-02-06T02:24:53.984Z,0.00
2018-02-06T02:25:53.925Z,0.00
2018-02-06T02:27:46.720Z,0.00
2018-02-06T02:28:46.630Z,0.00
2018-02-06T02:30:39.397Z,0.00
2018-02-06T02:31:39.336Z,0.00
2018-02-06T02:33:32.133Z,0.00
2018-02-06T02:34:32.042Z,0.00
2018-02-06T02:36:24.806Z,0.00
2018-02-06T02:37:24.746Z,0.00
2018-02-06T02:39:17.545Z,0.00
2018-02-06T02:40:17.458Z,0.00
2018-02-06T04:40:11.154Z,0.00
2018-02-06T04:41:11.063Z,0.00
2018-02-06T04:43:03.826Z,0.00
2018-02-06T04:44:03.766Z,0.00
2018-02-06T04:45:56.558Z,0.00
2018-02-06T04:46:56.468Z,0.00
2018-02-06T04:48:49.233Z,0.00
2018-02-06T04:49:49.172Z,0.00
2018-02-06T04:51:41.968Z,0.00
2018-02-06T04:52:41.879Z,0.00
2018-02-06T04:54:34.641Z,0.00
2018-02-06T04:55:34.579Z,0.00
2018-02-06T04:57:27.374Z,0.00
2018-02-06T04:58:27.281Z,0.00
2018-02-06T05:00:20.045Z,0.00
2018-02-06T05:01:19.984Z,0.00
2018-02-06T05:03:12.778Z,0.00
2018-02-06T05:04:12.688Z,0.00
2018-02-06T05:06:05.450Z,0.00
2018-02-06T05:07:05.390Z,0.00
2018-02-06T05:08:58.187Z,0.00
2018-02-06T05:09:58.093Z,0.00
2018-02-06T05:11:50.858Z,0.00
2018-02-06T05:12:50.797Z,0.00
2018-02-06T05:14:43.592Z,0.00
2018-02-06T05:15:43.500Z,0.00
2018-02-06T05:17:36.267Z,0.00
2018-02-06T05:18:36.207Z,0.00
2018-02-06T05:20:29.003Z,0.00
2018-02-06T05:21:28.914Z,0.00
2018-02-06T05:23:21.680Z,0.00
2018-02-06T05:24:21.617Z,0.00
2018-02-06T05:26:14.417Z,0.00
2018-02-06T05:27:14.321Z,0.00
2018-02-06T05:29:07.087Z,0.00
2018-02-06T05:30:07.023Z,0.00
2018-02-06T05:31:59.815Z,0.00
2018-02-06T05:32:59.725Z,0.00
2018-02-06T05:34:52.492Z,0.00
2018-02-06T05:35:52.432Z,0.00
2018-02-06T05:37:45.225Z,0.00
2018-02-06T05:38:45.134Z,0.00
2018-02-06T05:40:37.899Z,0.00
2018-02-06T05:41:37.838Z,0.00
2018-02-06T05:43:30.633Z,0.00
2018-02-06T05:44:30.543Z,0.00
2018-02-06T05:46:23.309Z,0.00
2018-02-06T05:47:23.244Z,0.00
2018-02-06T05:49:16.039Z,0.00
2018-02-06T05:50:15.948Z,0.00
2018-02-06T05:52:08.714Z,0.00
2018-02-06T05:53:08.653Z,0.00
2018-02-06T05:55:01.448Z,0.00
2018-02-06T05:56:01.356Z,0.00
2018-02-06T05:57:54.119Z,0.00
2018-02-06T05:58:54.059Z,0.00
2018-02-06T06:00:46.853Z,0.00
2018-02-06T06:01:46.760Z,0.00
2018-02-06T06:03:39.524Z,0.00
2018-02-06T06:04:39.462Z,0.00
2018-02-06T06:06:32.256Z,0.00
2018-02-06T06:07:32.166Z,0.00
2018-02-06T06:09:24.933Z,0.00
2018-02-06T06:10:24.870Z,0.00
2018-02-06T06:12:17.662Z,0.00
2018-02-06T06:13:17.571Z,0.00
2018-02-06T06:15:10.337Z,0.00
2018-02-06T06:16:10.275Z,0.00
2018-02-06T06:18:03.068Z,0.00
2018-02-06T06:19:02.979Z,0.00
2018-02-06T06:20:55.743Z,0.00
2018-02-06T06:21:55.681Z,0.00
2018-02-06T06:23:48.477Z,0.00
2018-02-06T06:24:48.386Z,0.00
2018-02-06T06:26:41.150Z,4.00
2018-02-06T06:27:41.089Z,0.00
2018-02-06T06:29:33.886Z,4.00
2018-02-06T06:30:33.801Z,4.00
2018-02-06T06:32:26.559Z,8.00
2018-02-06T06:33:26.499Z,8.00
2018-02-06T06:35:19.296Z,12.00
2018-02-06T06:36:19.201Z,12.00
2018-02-06T06:38:11.966Z,16.00
2018-02-06T06:39:11.905Z,20.00
2018-02-06T06:41:04.700Z,20.00
2018-02-06T06:42:04.612Z,28.00
2018-02-06T06:43:57.374Z,28.00
2018-02-06T06:44:57.312Z,32.00
2018-02-06T06:46:50.108Z,40.00
2018-02-06T06:47:50.015Z,44.00
2018-02-06T06:49:42.798Z,52.00
2018-02-06T06:50:42.722Z,56.00
2018-02-06T06:52:35.514Z,64.00
2018-02-06T06:53:35.424Z,64.00
2018-02-06T06:55:28.186Z,72.00
2018-02-06T06:56:28.125Z,76.00
2018-02-06T06:58:20.924Z,84.00
2018-02-06T06:59:20.833Z,88.00
2018-02-06T07:01:13.598Z,100.00
2018-02-06T07:02:13.537Z,108.00
2018-02-06T07:04:06.335Z,120.00
2018-02-06T07:05:06.244Z,132.00
2018-02-06T07:06:59.015Z,160.00
2018-02-06T07:07:58.954Z,176.00
2018-02-06T07:09:51.750Z,204.00
2018-02-06T07:10:51.662Z,216.00
2018-02-06T07:12:44.427Z,240.00
2018-02-06T07:13:44.365Z,248.00
2018-02-06T07:15:37.161Z,268.00
2018-02-06T07:16:37.071Z,280.00
2018-02-06T07:18:29.836Z,320.00
2018-02-06T07:19:29.776Z,352.00
2018-02-06T07:21:22.576Z,388.00
2018-02-06T07:22:22.485Z,408.00
2018-02-06T07:24:15.248Z,448.00
2018-02-06T07:25:15.187Z,476.00
2018-02-06T07:27:07.987Z,500.00
2018-02-06T07:28:07.895Z,504.00
2018-02-06T07:30:00.662Z,484.00
2018-02-06T07:31:00.602Z,492.00
2018-02-06T07:32:53.397Z,520.00
2018-02-06T07:33:53.306Z,532.00
2018-02-06T07:35:46.079Z,524.00
2018-02-06T07:36:46.012Z,532.00
2018-02-06T07:38:38.808Z,624.00
2018-02-06T07:39:38.717Z,688.00
2018-02-06T07:41:31.485Z,804.00
2018-02-06T07:42:31.427Z,852.00
2018-02-06T07:44:24.222Z,940.00
2018-02-06T07:45:24.132Z,988.00
2018-02-06T07:47:16.903Z,1104.00
2018-02-06T07:48:16.838Z,1168.00
2018-02-06T07:50:09.635Z,1288.00
2018-02-06T07:51:09.544Z,1348.00
2018-02-06T07:53:02.310Z,1412.00
2018-02-06T07:54:02.251Z,1404.00
2018-02-06T07:55:55.046Z,1372.00
2018-02-06T07:56:54.958Z,1372.00
2018-02-06T07:58:47.720Z,1336.00
2018-02-06T07:59:47.663Z,1300.00
2018-02-06T08:01:40.477Z,1300.00
2018-02-06T08:02:40.371Z,1328.00
2018-02-06T08:04:33.138Z,1408.00
2018-02-06T08:05:33.078Z,1472.00
2018-02-06T08:07:25.876Z,1636.00
2018-02-06T08:08:25.787Z,1748.00
2018-02-06T08:10:18.565Z,1984.00
2018-02-06T08:11:18.497Z,2112.00
2018-02-06T08:13:11.293Z,2332.00
2018-02-06T08:14:11.202Z,2444.00
2018-02-06T08:16:03.972Z,2684.00
2018-02-06T08:17:03.913Z,2796.00
2018-02-06T08:18:56.710Z,2892.00
2018-02-06T08:19:56.622Z,2900.00
2018-02-06T08:21:49.390Z,2800.00
2018-02-06T08:22:49.331Z,2716.00
2018-02-06T08:24:42.128Z,2584.00
2018-02-06T08:25:42.038Z,2560.00
2018-02-06T08:27:34.806Z,2712.00
2018-02-06T08:28:34.747Z,2888.00
2018-02-06T08:30:27.544Z,3320.00
2018-02-06T08:31:27.458Z,3528.00
2018-02-06T08:33:20.223Z,4104.00
2018-02-06T08:34:20.164Z,4356.00
2018-02-06T08:36:12.968Z,4496.00
2018-02-06T08:37:12.876Z,4592.00
2018-02-06T08:39:05.650Z,4848.00
2018-02-06T08:40:05.596Z,4844.00
2018-02-06T08:41:58.385Z,4688.00
2018-02-06T08:42:58.295Z,4404.00
2018-02-06T08:44:51.065Z,4312.00
2018-02-06T08:45:51.006Z,4152.00
2018-02-06T08:47:43.806Z,4364.00
2018-02-06T08:48:43.717Z,3992.00
2018-02-06T08:50:36.484Z,3856.00
2018-02-06T08:51:36.426Z,3628.00
2018-02-06T08:53:29.226Z,3564.00
2018-02-06T08:54:29.138Z,4208.00
2018-02-06T08:56:21.905Z,3820.00
2018-02-06T08:57:21.845Z,3924.00
2018-02-06T08:59:14.661Z,4120.00
2018-02-06T09:00:14.557Z,4164.00
2018-02-06T09:02:07.327Z,4152.00
2018-02-06T09:03:07.270Z,4604.00
2018-02-06T09:05:00.069Z,4864.00
2018-02-06T09:05:59.981Z,4336.00
2018-02-06T09:07:52.746Z,4608.00
2018-02-06T09:08:52.688Z,5088.00
2018-02-06T09:10:45.485Z,5304.00
2018-02-06T09:11:45.395Z,5212.00
2018-02-06T09:13:38.167Z,4956.00
2018-02-06T09:14:38.109Z,5032.00
2018-02-06T09:16:30.972Z,5636.00
2018-02-06T09:17:30.820Z,5816.00
2018-02-06T09:19:23.589Z,5772.00
2018-02-06T09:20:23.529Z,5580.00
2018-02-06T09:22:16.330Z,5920.00
2018-02-06T09:23:16.240Z,5492.00
2018-02-06T09:25:09.011Z,5124.00
2018-02-06T09:26:08.950Z,4916.00
2018-02-06T09:28:01.751Z,4720.00
2018-02-06T09:29:01.663Z,4744.00
2018-02-06T09:30:54.434Z,5648.00
2018-02-06T09:31:54.376Z,6104.00
2018-02-06T09:33:47.179Z,6624.00
2018-02-06T09:34:47.091Z,6580.00
2018-02-06T09:36:39.859Z,5840.00
2018-02-06T09:37:39.801Z,5272.00
2018-02-06T09:39:32.630Z,4084.00
2018-02-06T09:40:32.512Z,3748.00
2018-02-06T09:42:25.287Z,3712.00
2018-02-06T09:43:25.225Z,3688.00
2018-02-06T09:45:18.023Z,4428.00
2018-02-06T09:46:17.935Z,4992.00
2018-02-06T09:48:10.703Z,6376.00
2018-02-06T09:49:10.646Z,6804.00
2018-02-06T09:51:03.447Z,6940.00
2018-02-06T09:52:03.356Z,6992.00
2018-02-06T09:53:56.126Z,7012.00
2018-02-06T09:54:56.068Z,7000.00
2018-02-06T09:56:48.885Z,6348.00
2018-02-06T09:57:48.780Z,6100.00
2018-02-06T09:59:41.551Z,5788.00
2018-02-06T10:00:41.492Z,5600.00
2018-02-06T10:02:34.292Z,5224.00
2018-02-06T10:03:34.205Z,5096.00
2018-02-06T10:05:26.976Z,5048.00
2018-02-06T10:06:26.922Z,5000.00
2018-02-06T10:08:19.719Z,4872.00
2018-02-06T10:09:19.630Z,4852.00
2018-02-06T10:11:12.401Z,4656.00
2018-02-06T10:12:12.343Z,4480.00
2018-02-06T10:14:05.144Z,4452.00
2018-02-06T10:15:05.055Z,4604.00
2018-02-06T10:16:57.825Z,4952.00
2018-02-06T10:17:57.768Z,5104.00
2018-02-06T10:19:50.568Z,5220.00
2018-02-06T10:20:50.480Z,5180.00
2018-02-06T10:22:43.252Z,5036.00
2018-02-06T10:23:43.191Z,4984.00
2018-02-06T10:25:36.007Z,4984.00
2018-02-06T10:26:35.902Z,5004.00
2018-02-06T10:28:28.672Z,5148.00
2018-02-06T10:29:28.614Z,5292.00
2018-02-06T10:31:21.416Z,5460.00
2018-02-06T10:32:21.329Z,5524.00
2018-02-06T10:34:14.096Z,5696.00
2018-02-06T10:35:14.040Z,5712.00
2018-02-06T10:37:06.840Z,5892.00
2018-02-06T10:38:06.752Z,5656.00
2018-02-06T10:39:59.522Z,5668.00
2018-02-06T10:40:59.464Z,5844.00
2018-02-06T10:42:52.280Z,6160.00
2018-02-06T10:43:52.175Z,6640.00
2018-02-06T10:45:44.947Z,7524.00
2018-02-06T10:46:44.891Z,7496.00
2018-02-06T10:48:37.692Z,7624.00
2018-02-06T10:49:37.604Z,7360.00
2018-02-06T10:51:30.376Z,7672.00
2018-02-06T10:52:30.316Z,6960.00
2018-02-06T10:54:23.119Z,6300.00
2018-02-06T10:55:23.030Z,6788.00
2018-02-06T10:57:15.801Z,6804.00
2018-02-06T10:58:15.744Z,6400.00
2018-02-06T11:00:08.545Z,6548.00
2018-02-06T11:01:08.457Z,6276.00
2018-02-06T11:03:01.228Z,6552.00
2018-02-06T11:04:01.172Z,6504.00
2018-02-06T11:05:53.974Z,6868.00
2018-02-06T11:06:53.886Z,7188.00
2018-02-06T11:08:46.655Z,7304.00
2018-02-06T11:09:46.598Z,7308.00
2018-02-06T11:11:39.400Z,6936.00
2018-02-06T11:12:39.313Z,6428.00
2018-02-06T11:14:32.084Z,6432.00
2018-02-06T11:15:32.027Z,5940.00
2018-02-06T11:17:24.844Z,6600.00
2018-02-06T11:18:24.741Z,7296.00
2018-02-06T11:20:17.514Z,6492.00
2018-02-06T11:21:17.454Z,7096.00
2018-02-06T11:23:10.254Z,6980.00
2018-02-06T11:24:10.167Z,7984.00
2018-02-06T11:26:02.940Z,8008.00
2018-02-06T11:27:02.882Z,6732.00
2018-02-06T11:28:55.682Z,7652.00
2018-02-06T11:29:55.594Z,7600.00
2018-02-06T11:31:48.367Z,6492.00
2018-02-06T11:32:48.310Z,6380.00
2018-02-06T11:34:41.112Z,5852.00
2018-02-06T11:35:41.022Z,5560.00
2018-02-06T11:37:33.839Z,5412.00
2018-02-06T11:38:33.739Z,5296.00
2018-02-06T11:40:26.539Z,4856.00
2018-02-06T11:41:26.451Z,4696.00
2018-02-06T11:43:19.223Z,5200.00
2018-02-06T11:44:19.165Z,5308.00
2018-02-06T11:46:11.965Z,5276.00
2018-02-06T11:47:11.880Z,4772.00
2018-02-06T11:49:04.650Z,5244.00
2018-02-06T11:50:04.592Z,5468.00
2018-02-06T11:51:57.409Z,5204.00
2018-02-06T11:52:57.306Z,5324.00
2018-02-06T11:54:50.077Z,4448.00
2018-02-06T11:55:50.019Z,4256.00
2018-02-06T11:57:42.863Z,4148.00
2018-02-06T11:58:42.733Z,4304.00
2018-02-06T12:00:35.502Z,3844.00
2018-02-06T12:01:35.444Z,3996.00
2018-02-06T12:03:28.249Z,3956.00
2018-02-06T12:04:28.161Z,3924.00
2018-02-06T12:06:20.930Z,4232.00
2018-02-06T12:07:20.871Z,4144.00
2018-02-06T12:09:13.673Z,4040.00
2018-02-06T12:10:13.586Z,4012.00
2018-02-06T12:12:06.356Z,3988.00
2018-02-06T12:13:06.298Z,3824.00
2018-02-06T12:14:59.100Z,3772.00
2018-02-06T12:15:59.011Z,3736.00
2018-02-06T12:17:51.786Z,3940.00
2018-02-06T12:18:51.727Z,3784.00
2018-02-06T12:20:44.558Z,3704.00
2018-02-06T12:21:44.441Z,3660.00
2018-02-06T12:23:37.212Z,3592.00
2018-02-06T12:24:37.155Z,3464.00
2018-02-06T12:26:29.960Z,3560.00
2018-02-06T12:27:29.872Z,3768.00
2018-02-06T12:29:22.642Z,4032.00
2018-02-06T12:30:22.585Z,4072.00
2018-02-06T12:32:15.386Z,4212.00
2018-02-06T12:33:15.297Z,4312.00
2018-02-06T12:35:08.070Z,4032.00
2018-02-06T12:36:08.012Z,3744.00
2018-02-06T12:38:00.830Z,3836.00
2018-02-06T12:39:00.725Z,3884.00
2018-02-06T12:40:53.495Z,3836.00
2018-02-06T12:41:53.443Z,3756.00
2018-02-06T12:43:46.240Z,3740.00
2018-02-06T12:44:46.152Z,3704.00
2018-02-06T12:46:38.922Z,3812.00
2018-02-06T12:47:38.865Z,3880.00
2018-02-06T12:49:31.667Z,4060.00
2018-02-06T12:50:31.579Z,4028.00
2018-02-06T12:52:24.357Z,4276.00
2018-02-06T12:53:24.300Z,4524.00
2018-02-06T12:55:17.100Z,4088.00
2018-02-06T12:56:17.012Z,3948.00
2018-02-06T12:58:09.782Z,4084.00
2018-02-06T12:59:09.725Z,4112.00
2018-02-06T13:01:02.529Z,4352.00
2018-02-06T13:02:02.441Z,4404.00
2018-02-06T13:03:55.212Z,3960.00
2018-02-06T13:04:55.150Z,3864.00
2018-02-06T13:06:47.966Z,3860.00
2018-02-06T13:07:47.865Z,3868.00
2018-02-06T13:09:40.639Z,3740.00
2018-02-06T13:10:40.584Z,3676.00
2018-02-06T13:12:33.384Z,3508.00
2018-02-06T13:13:33.295Z,3296.00
2018-02-06T13:15:26.065Z,3100.00
2018-02-06T13:16:26.007Z,3056.00
2018-02-06T13:18:18.809Z,2912.00
2018-02-06T13:19:18.721Z,2840.00
2018-02-06T13:21:11.492Z,2764.00
2018-02-06T13:22:11.435Z,2740.00
2018-02-06T13:24:04.254Z,2656.00
2018-02-06T13:25:04.151Z,2572.00
2018-02-06T13:26:56.922Z,2524.00
2018-02-06T13:27:56.863Z,2548.00
2018-02-06T13:29:49.666Z,2556.00
2018-02-06T13:30:49.577Z,2536.00
2018-02-06T13:32:42.347Z,2416.00
2018-02-06T13:33:42.290Z,2420.00
2018-02-06T13:35:35.089Z,2444.00
2018-02-06T13:36:35.001Z,2456.00
2018-02-06T13:38:27.769Z,2564.00
2018-02-06T13:39:27.716Z,2560.00
2018-02-06T13:41:20.513Z,2688.00
2018-02-06T13:42:20.427Z,2772.00
2018-02-06T13:44:13.195Z,2888.00
2018-02-06T13:45:13.138Z,2904.00
2018-02-06T13:47:05.942Z,3104.00
2018-02-06T13:48:05.850Z,3160.00
2018-02-06T13:49:58.624Z,3208.00
2018-02-06T13:50:58.579Z,3200.00
2018-02-06T13:52:51.363Z,3144.00
2018-02-06T13:53:51.279Z,3124.00
2018-02-06T13:55:44.044Z,3060.00
2018-02-06T13:56:43.986Z,3008.00
2018-02-06T13:58:36.788Z,2912.00
2018-02-06T13:59:36.699Z,2848.00
2018-02-06T14:01:29.472Z,2716.00
2018-02-06T14:02:29.414Z,2636.00
2018-02-06T14:04:22.233Z,2480.00
2018-02-06T14:05:22.126Z,2412.00
2018-02-06T14:07:14.899Z,2276.00
2018-02-06T14:08:14.841Z,2164.00
2018-02-06T14:10:07.643Z,2028.00
2018-02-06T14:11:07.556Z,2016.00
2018-02-06T14:13:00.329Z,1956.00
2018-02-06T14:14:00.267Z,1920.00
2018-02-06T14:15:53.074Z,1840.00
2018-02-06T14:16:52.988Z,1780.00
2018-02-06T14:18:45.757Z,1708.00
2018-02-06T14:19:45.700Z,1672.00
2018-02-06T14:21:38.502Z,1588.00
2018-02-06T14:22:38.412Z,1556.00
2018-02-06T14:24:31.182Z,1488.00
2018-02-06T14:25:31.124Z,1456.00
2018-02-06T14:27:23.921Z,1392.00
2018-02-06T14:28:23.835Z,1360.00
2018-02-06T14:30:16.605Z,1320.00
2018-02-06T14:31:16.547Z,1292.00
2018-02-06T14:33:09.350Z,1252.00
2018-02-06T14:34:09.259Z,1236.00
2018-02-06T14:36:02.027Z,1204.00
2018-02-06T14:37:01.969Z,1184.00
2018-02-06T14:38:54.768Z,1132.00
2018-02-06T14:39:54.680Z,1124.00
2018-02-06T14:41:47.449Z,1104.00
2018-02-06T14:42:47.391Z,1092.00
2018-02-06T14:44:40.188Z,1060.00
2018-02-06T14:45:40.100Z,1044.00
2018-02-06T14:47:32.869Z,1004.00
2018-02-06T14:48:32.811Z,976.00
2018-02-06T14:50:25.624Z,968.00
2018-02-06T14:51:25.520Z,964.00
2018-02-06T14:53:18.289Z,952.00
2018-02-06T14:54:18.229Z,948.00
2018-02-06T14:56:11.027Z,932.00
2018-02-06T14:57:10.939Z,928.00
2018-02-06T14:59:03.710Z,916.00
2018-02-06T15:00:03.658Z,908.00
2018-02-06T15:01:56.452Z,892.00
2018-02-06T15:02:56.362Z,884.00
2018-02-06T15:04:49.130Z,868.00
2018-02-06T15:05:49.071Z,860.00
2018-02-06T15:07:41.870Z,848.00
2018-02-06T15:08:41.780Z,840.00
2018-02-06T15:10:34.547Z,828.00
2018-02-06T15:11:34.488Z,824.00
2018-02-06T15:13:27.288Z,808.00
2018-02-06T15:14:27.202Z,804.00
2018-02-06T15:16:19.970Z,788.00
2018-02-06T15:17:19.913Z,780.00
2018-02-06T15:19:12.712Z,772.00
2018-02-06T15:20:12.623Z,764.00
2018-02-06T15:22:05.389Z,740.00
2018-02-06T15:23:05.330Z,732.00
2018-02-06T15:24:58.144Z,712.00
2018-02-06T15:25:58.039Z,708.00
2018-02-06T15:27:50.806Z,684.00
2018-02-06T15:28:50.749Z,676.00
2018-02-06T15:30:43.547Z,652.00
2018-02-06T15:31:43.463Z,644.00
2018-02-06T15:33:36.224Z,624.00
2018-02-06T15:34:36.165Z,616.00
2018-02-06T15:36:28.963Z,600.00
2018-02-06T15:37:28.873Z,592.00
2018-02-06T15:39:21.641Z,568.00
2018-02-06T15:40:21.579Z,552.00
2018-02-06T15:42:14.378Z,528.00
2018-02-06T15:43:14.314Z,512.00
2018-02-06T15:45:07.058Z,492.00
2018-02-06T15:46:06.997Z,484.00
2018-02-06T15:47:59.798Z,472.00
2018-02-06T15:48:59.734Z,460.00
2018-02-06T15:50:52.481Z,432.00
2018-02-06T15:51:52.417Z,420.00
2018-02-06T15:53:45.218Z,404.00
2018-02-06T15:54:45.127Z,392.00
2018-02-06T15:56:37.895Z,372.00
2018-02-06T15:57:37.836Z,364.00
2018-02-06T15:59:30.633Z,340.00
2018-02-06T16:00:30.542Z,332.00
2018-02-06T16:02:23.308Z,312.00
2018-02-06T16:03:23.249Z,300.00
2018-02-06T16:05:16.063Z,276.00
2018-02-06T16:06:15.957Z,264.00
2018-02-06T16:08:08.723Z,240.00
2018-02-06T16:09:08.663Z,228.00
2018-02-06T16:11:01.461Z,208.00
2018-02-06T16:12:01.371Z,192.00
2018-02-06T16:13:54.139Z,176.00
2018-02-06T16:14:54.078Z,164.00
2018-02-06T16:16:46.879Z,144.00
2018-02-06T16:17:46.790Z,132.00
2018-02-06T16:19:39.558Z,116.00
2018-02-06T16:20:39.498Z,104.00
2018-02-06T16:22:32.296Z,92.00
2018-02-06T16:23:32.208Z,84.00
2018-02-06T16:25:24.971Z,72.00
2018-02-06T16:26:24.911Z,64.00
2018-02-06T16:28:17.711Z,52.00
2018-02-06T16:29:17.620Z,48.00
2018-02-06T16:31:10.386Z,40.00
2018-02-06T16:32:10.328Z,32.00
2018-02-06T16:34:03.126Z,28.00
2018-02-06T16:35:03.036Z,24.00
2018-02-06T16:36:55.801Z,20.00
2018-02-06T16:37:55.741Z,16.00
2018-02-06T16:39:48.542Z,12.00
2018-02-06T16:40:48.448Z,12.00
2018-02-06T16:42:41.216Z,8.00
2018-02-06T16:43:41.157Z,4.00
2018-02-06T16:45:33.954Z,4.00
2018-02-06T16:46:33.866Z,4.00
2018-02-06T16:48:26.629Z,4.00
2018-02-06T16:49:26.570Z,4.00
2018-02-06T16:51:19.366Z,0.00
2018-02-06T16:52:19.278Z,0.00
2018-02-06T16:54:12.045Z,0.00
2018-02-06T16:55:11.986Z,0.00
2018-02-06T16:57:04.779Z,0.00
2018-02-06T16:58:04.690Z,0.00
2018-02-06T16:59:57.454Z,0.00
2018-02-06T17:00:57.394Z,0.00
2018-02-06T17:02:50.191Z,0.00
2018-02-06T17:03:50.101Z,0.00
2018-02-06T17:05:42.868Z,0.00
2018-02-06T17:06:42.809Z,0.00
2018-02-06T17:08:35.640Z,0.00
2018-02-06T17:09:35.516Z,0.00
2018-02-06T17:11:28.281Z,0.00
2018-02-06T17:12:28.220Z,0.00
2018-02-06T17:14:21.016Z,0.00
2018-02-06T17:15:20.925Z,0.00
2018-02-06T17:17:13.690Z,0.00
2018-02-06T17:18:13.632Z,0.00
2018-02-06T17:20:06.424Z,0.00
2018-02-06T17:21:06.333Z,0.00
2018-02-06T17:22:59.099Z,0.00
2018-02-06T17:23:59.038Z,180.00
2018-02-06T17:25:51.860Z,160.00
2018-02-06T17:26:51.740Z,156.00
2018-02-06T17:28:44.503Z,152.00
2018-02-06T17:29:44.442Z,152.00
2018-02-06T17:31:37.237Z,148.00
2018-02-06T17:32:37.145Z,152.00
2018-02-06T17:34:29.909Z,148.00
2018-02-06T17:35:29.849Z,148.00
2018-02-06T17:37:22.648Z,148.00
2018-02-06T17:38:22.556Z,148.00
2018-02-06T17:40:15.325Z,144.00
2018-02-06T17:41:15.268Z,144.00
2018-02-06T17:43:08.080Z,144.00
2018-02-06T17:44:07.973Z,144.00
2018-02-06T17:46:00.742Z,144.00
2018-02-06T17:47:00.683Z,144.00
2018-02-06T17:48:53.483Z,140.00
2018-02-06T17:49:53.394Z,140.00
2018-02-06T17:51:46.165Z,140.00
2018-02-06T17:52:46.107Z,140.00
2018-02-06T17:54:38.909Z,144.00
2018-02-06T17:55:38.820Z,140.00
2018-02-06T17:57:31.588Z,144.00
2018-02-06T17:58:31.530Z,140.00
2018-02-06T18:00:24.329Z,140.00
2018-02-06T18:01:24.240Z,140.00
2018-02-06T18:03:17.013Z,140.00
2018-02-06T18:04:16.956Z,140.00
2018-02-06T18:06:09.755Z,140.00
2018-02-06T18:07:09.668Z,140.00
2018-02-06T18:09:02.443Z,140.00
2018-02-06T18:10:02.386Z,140.00
2018-02-06T18:11:55.189Z,136.00
2018-02-06T18:12:55.100Z,140.00
2018-02-06T18:14:47.875Z,140.00
2018-02-06T18:15:47.814Z,140.00
2018-02-06T18:17:40.618Z,140.00
2018-02-06T18:18:40.535Z,140.00
2018-02-06T18:20:33.304Z,140.00
2018-02-06T18:21:33.248Z,140.00
2018-02-06T18:23:26.050Z,140.00
2018-02-06T18:24:25.963Z,140.00
2018-02-06T18:26:18.736Z,140.00
2018-02-06T18:27:18.680Z,140.00
2018-02-06T18:29:11.484Z,140.00
2018-02-06T18:30:11.399Z,136.00
2018-02-06T18:32:04.170Z,136.00
2018-02-06T18:33:04.113Z,136.00
2018-02-06T18:34:56.920Z,136.00
2018-02-06T18:35:56.830Z,136.00
2018-02-06T18:37:49.605Z,140.00
2018-02-06T18:38:49.549Z,136.00
2018-02-06T18:40:42.352Z,136.00
2018-02-06T18:41:42.266Z,136.00
2018-02-06T18:43:35.039Z,136.00
2018-02-06T18:44:34.982Z,136.00
2018-02-06T18:46:27.787Z,136.00
2018-02-06T18:47:27.699Z,136.00
2018-02-06T18:49:20.472Z,136.00
2018-02-06T18:50:20.416Z,136.00
2018-02-06T18:52:13.218Z,136.00
2018-02-06T18:53:13.130Z,136.00
2018-02-06T18:55:05.904Z,136.00
2018-02-06T18:56:05.848Z,136.00
2018-02-06T18:57:58.651Z,136.00
2018-02-06T18:58:58.566Z,136.00
2018-02-06T19:00:51.341Z,140.00
2018-02-06T19:01:51.286Z,140.00
2018-02-06T19:03:44.089Z,136.00
2018-02-06T19:04:44.004Z,140.00
2018-02-06T19:06:36.778Z,140.00
2018-02-06T19:07:36.722Z,140.00
2018-02-06T19:09:29.527Z,140.00
2018-02-06T19:10:29.438Z,140.00
2018-02-06T19:12:22.217Z,140.00
2018-02-06T19:13:22.155Z,140.00
2018-02-06T19:15:14.957Z,140.00
2018-02-06T19:16:14.873Z,140.00
2018-02-06T19:18:07.647Z,0.00
2018-02-06T19:19:07.593Z,0.00
2018-02-06T19:21:00.398Z,0.00
2018-02-06T19:22:00.312Z,0.00
2018-02-06T19:23:53.085Z,0.00
2018-02-06T19:24:53.029Z,0.00
2018-02-06T19:26:45.836Z,0.00
2018-02-06T19:27:45.752Z,0.00
2018-02-06T19:29:38.523Z,0.00
2018-02-06T19:30:38.466Z,0.00
2018-02-06T19:32:31.273Z,0.00
2018-02-06T19:33:31.187Z,0.00
2018-02-06T19:35:23.963Z,0.00
2018-02-06T19:36:23.905Z,0.00
2018-02-06T19:38:16.711Z,0.00
2018-02-06T19:39:16.627Z,0.00
2018-02-06T19:41:09.401Z,0.00
2018-02-06T19:42:09.346Z,0.00
2018-02-06T19:44:02.154Z,0.00
2018-02-06T19:45:02.115Z,0.00
2018-02-06T19:46:54.840Z,0.00
2018-02-06T19:47:54.784Z,0.00
2018-02-06T19:49:47.589Z,0.00
2018-02-06T19:50:47.502Z,0.00
2018-02-06T19:52:40.284Z,0.00
2018-02-06T19:53:40.227Z,0.00
2018-02-06T19:55:33.032Z,0.00
2018-02-06T19:56:32.947Z,0.00
2018-02-06T19:58:25.724Z,0.00
2018-02-06T19:59:25.668Z,0.00
2018-02-06T20:01:18.483Z,0.00
2018-02-06T20:02:18.393Z,0.00
2018-02-06T20:04:11.169Z,0.00
2018-02-06T20:05:11.113Z,0.00
2018-02-06T20:07:03.944Z,0.00